Etusivu
METAR-TAF:

METAR-TAF

Lentoasemat :

Havanna, Kuuba

Leveyspiiri: 23-01-58N, Pituuspiiri: 082-34-46W, korkeus merenpinnasta: 31 m

METAR: puuttuu

Aika: 06:00 (11:00 UTC)

Sääennuste

Tämä raportti tehtiin 12 tuntia ja 0 minuuttia sitten, kello 23.00 UTC
Ennuste voimassa 15. päivästä klo 00 UTC - 15. päivään klo 24 UTC
Tuuli 10 kn koillisesta
Näkyvyys: 9000 m
Hajanaisia pilviä 2000 ft:n korkeudessa
Ajoittain
15. päivästä klo 00 UTC - 15. päivään klo 06 UTC
Näkyvyys: 5000 m
Hajonneita pilviä 2000 ft:n korkeudessa
vesikuuroja

TAF: MUPB 142300Z 1500/1524 04010KT 9000 SCT020 TEMPO 1500/1506 5000 SHRA BKN020

Säähavainnot ja -ennusteet yli 4000 lentoasemalta (METAR- ja TAF-raportit).

Käytössä olevat sääasemat on merkitty karttaan keltaisilla ja punaisilla pisteillä.

Aseta hiiri pisteen päälle nähdäksesi sääaseman nimen.

Klikkaa sitten nähdäksesi säähavainnot ja -ennusteet.

Kartan vaihtaminen: klikkaa mustalla rastilla varustettuja vihreitä pisteitä, niin voit zoomata sisään; viivalla varustettua vihreää pistettä, niin voit zoomata ulos tai vihreitä nuolia, niin pääset viereisille kartoille.


METAR-TAF: